sensor_id;sensor_type;location;lat;lon;timestamp;pressure;altitude;pressure_sealevel;temperature;humidity
72157;BME280;60035;52.122;5.406;2023-04-02T00:00:35;101411.81;;;6.25;100.00
72157;BME280;60035;52.122;5.406;2023-04-02T00:03:04;101422.00;;;6.24;100.00
72157;BME280;60035;52.122;5.406;2023-04-02T00:05:44;101425.38;;;6.24;100.00
72157;BME280;60035;52.122;5.406;2023-04-02T00:08:32;101437.25;;;6.24;100.00
72157;BME280;60035;52.122;5.406;2023-04-02T00:11:04;101430.50;;;6.21;100.00
72157;BME280;60035;52.122;5.406;2023-04-02T00:13:38;101429.63;;;6.19;100.00
72157;BME280;60035;52.122;5.406;2023-04-02T00:16:11;101438.97;;;6.19;100.00
72157;BME280;60035;52.122;5.406;2023-04-02T00:18:42;101433.03;;;6.18;100.00
72157;BME280;60035;52.122;5.406;2023-04-02T00:21:21;101444.06;;;6.17;100.00
72157;BME280;60035;52.122;5.406;2023-04-02T00:23:49;101443.19;;;6.15;100.00
72157;BME280;60035;52.122;5.406;2023-04-02T00:26:38;101446.63;;;6.14;100.00
72157;BME280;60035;52.122;5.406;2023-04-02T00:29:09;101445.75;;;6.13;100.00
72157;BME280;60035;52.122;5.406;2023-04-02T00:31:39;101450.84;;;6.13;100.00
72157;BME280;60035;52.122;5.406;2023-04-02T00:34:08;101455.06;;;6.16;100.00
72157;BME280;60035;52.122;5.406;2023-04-02T00:36:39;101463.56;;;6.16;100.00
72157;BME280;60035;52.122;5.406;2023-04-02T00:39:26;101463.53;;;6.15;100.00
72157;BME280;60035;52.122;5.406;2023-04-02T00:41:56;101473.72;;;6.13;100.00
72157;BME280;60035;52.122;5.406;2023-04-02T00:44:33;101478.81;;;6.12;100.00
72157;BME280;60035;52.122;5.406;2023-04-02T00:47:11;101490.69;;;6.11;100.00
72157;BME280;60035;52.122;5.406;2023-04-02T00:49:40;101488.13;;;6.10;100.00
72157;BME280;60035;52.122;5.406;2023-04-02T00:52:13;101497.47;;;6.08;100.00
72157;BME280;60035;52.122;5.406;2023-04-02T00:54:44;101500.00;;;6.06;100.00
72157;BME280;60035;52.122;5.406;2023-04-02T00:57:16;101501.69;;;6.04;100.00
72157;BME280;60035;52.122;5.406;2023-04-02T01:05:39;101522.88;;;6.00;100.00
72157;BME280;60035;52.122;5.406;2023-04-02T01:08:19;101529.63;;;5.98;100.00
72157;BME280;60035;52.122;5.406;2023-04-02T01:11:08;101533.88;;;5.96;100.00
72157;BME280;60035;52.122;5.406;2023-04-02T01:13:48;101533.88;;;5.94;100.00
72157;BME280;60035;52.122;5.406;2023-04-02T01:16:38;101544.03;;;5.94;100.00
72157;BME280;60035;52.122;5.406;2023-04-02T01:22:15;101551.66;;;5.96;100.00
72157;BME280;60035;52.122;5.406;2023-04-02T01:24:46;101558.44;;;5.97;100.00
72157;BME280;60035;52.122;5.406;2023-04-02T01:29:52;101556.75;;;5.94;100.00
72157;BME280;60035;52.122;5.406;2023-04-02T01:32:25;101561.81;;;5.94;100.00
72157;BME280;60035;52.122;5.406;2023-04-02T01:34:53;101559.25;;;5.91;100.00
72157;BME280;60035;52.122;5.406;2023-04-02T01:43:48;101577.91;;;5.86;100.00
72157;BME280;60035;52.122;5.406;2023-04-02T01:46:30;101582.13;;;5.88;100.00
72157;BME280;60035;52.122;5.406;2023-04-02T01:49:02;101587.22;;;5.87;100.00
72157;BME280;60035;52.122;5.406;2023-04-02T01:51:39;101593.97;;;5.84;100.00
72157;BME280;60035;52.122;5.406;2023-04-02T01:54:07;101595.69;;;5.81;100.00
72157;BME280;60035;52.122;5.406;2023-04-02T01:56:34;101596.53;;;5.78;100.00
72157;BME280;60035;52.122;5.406;2023-04-02T01:59:02;101607.53;;;5.79;100.00
72157;BME280;60035;52.122;5.406;2023-04-02T02:01:40;101606.66;;;5.75;100.00
72157;BME280;60035;52.122;5.406;2023-04-02T02:04:12;101616.00;;;5.73;100.00
72157;BME280;60035;52.122;5.406;2023-04-02T02:06:40;101628.69;;;5.75;100.00
72157;BME280;60035;52.122;5.406;2023-04-02T02:09:14;101628.69;;;5.76;100.00
72157;BME280;60035;52.122;5.406;2023-04-02T02:11:43;101638.88;;;5.73;100.00
72157;BME280;60035;52.122;5.406;2023-04-02T02:14:23;101638.84;;;5.70;100.00
72157;BME280;60035;52.122;5.406;2023-04-02T02:16:52;101638.84;;;5.67;100.00
72157;BME280;60035;52.122;5.406;2023-04-02T02:19:28;101650.66;;;5.62;100.00
72157;BME280;60035;52.122;5.406;2023-04-02T02:22:27;101652.34;;;5.57;100.00
72157;BME280;60035;52.122;5.406;2023-04-02T02:24:57;101654.88;;;5.54;100.00
72157;BME280;60035;52.122;5.406;2023-04-02T02:29:57;101670.91;;;5.40;100.00
72157;BME280;60035;52.122;5.406;2023-04-02T02:32:28;101659.00;;;5.33;100.00
72157;BME280;60035;52.122;5.406;2023-04-02T02:35:17;101665.78;;;5.31;100.00
72157;BME280;60035;52.122;5.406;2023-04-02T02:37:51;101672.50;;;5.26;100.00
72157;BME280;60035;52.122;5.406;2023-04-02T02:40:27;101677.59;;;5.24;100.00
72157;BME280;60035;52.122;5.406;2023-04-02T02:42:57;101682.63;;;5.20;100.00
72157;BME280;60035;52.122;5.406;2023-04-02T02:45:28;101672.44;;;5.16;100.00
72157;BME280;60035;52.122;5.406;2023-04-02T02:47:57;101691.88;;;5.11;100.00
72157;BME280;60035;52.122;5.406;2023-04-02T02:50:26;101696.94;;;5.08;100.00
72157;BME280;60035;52.122;5.406;2023-04-02T02:52:58;101692.69;;;5.07;100.00
72157;BME280;60035;52.122;5.406;2023-04-02T02:55:37;101702.00;;;5.07;100.00
72157;BME280;60035;52.122;5.406;2023-04-02T02:58:14;101719.75;;;5.05;100.00
72157;BME280;60035;52.122;5.406;2023-04-02T03:00:41;101716.38;;;5.05;100.00
72157;BME280;60035;52.122;5.406;2023-04-02T03:03:15;101723.16;;;5.06;100.00
72157;BME280;60035;52.122;5.406;2023-04-02T03:05:43;101727.41;;;5.07;100.00
72157;BME280;60035;52.122;5.406;2023-04-02T03:08:36;101729.91;;;5.04;100.00
72157;BME280;60035;52.122;5.406;2023-04-02T03:11:17;101740.88;;;5.03;100.00
72157;BME280;60035;52.122;5.406;2023-04-02T03:13:49;101751.03;;;5.01;100.00
72157;BME280;60035;52.122;5.406;2023-04-02T03:16:24;101745.94;;;4.99;100.00
72157;BME280;60035;52.122;5.406;2023-04-02T03:19:15;101762.88;;;4.99;100.00
72157;BME280;60035;52.122;5.406;2023-04-02T03:21:58;101760.28;;;4.96;100.00
72157;BME280;60035;52.122;5.406;2023-04-02T03:24:35;101761.16;;;4.98;100.00
72157;BME280;60035;52.122;5.406;2023-04-02T03:29:37;101780.56;;;4.94;100.00
72157;BME280;60035;52.122;5.406;2023-04-02T03:32:13;101787.34;;;4.94;100.00
72157;BME280;60035;52.122;5.406;2023-04-02T03:34:48;101791.53;;;4.90;100.00
72157;BME280;60035;52.122;5.406;2023-04-02T03:37:38;101797.44;;;4.89;100.00
72157;BME280;60035;52.122;5.406;2023-04-02T03:40:20;101800.00;;;4.89;100.00
72157;BME280;60035;52.122;5.406;2023-04-02T03:42:50;101813.53;;;4.90;100.00
72157;BME280;60035;52.122;5.406;2023-04-02T03:45:27;101805.88;;;4.88;100.00
72157;BME280;60035;52.122;5.406;2023-04-02T03:48:15;101821.06;;;4.82;100.00
72157;BME280;60035;52.122;5.406;2023-04-02T03:50:47;101829.50;;;4.79;100.00
72157;BME280;60035;52.122;5.406;2023-04-02T03:53:17;101826.97;;;4.79;100.00
72157;BME280;60035;52.122;5.406;2023-04-02T03:55:44;101840.47;;;4.78;100.00
72157;BME280;60035;52.122;5.406;2023-04-02T03:58:19;101839.63;;;4.76;100.00
72157;BME280;60035;52.122;5.406;2023-04-02T04:00:58;101844.72;;;4.78;100.00
72157;BME280;60035;52.122;5.406;2023-04-02T04:06:32;101858.25;;;4.80;100.00
72157;BME280;60035;52.122;5.406;2023-04-02T04:09:09;101861.69;;;4.82;100.00
72157;BME280;60035;52.122;5.406;2023-04-02T04:11:43;101860.78;;;4.80;100.00
72157;BME280;60035;52.122;5.406;2023-04-02T04:14:18;101871.75;;;4.76;100.00
72157;BME280;60035;52.122;5.406;2023-04-02T04:19:28;101882.69;;;4.70;100.00
72157;BME280;60035;52.122;5.406;2023-04-02T04:22:17;101898.72;;;4.66;100.00
72157;BME280;60035;52.122;5.406;2023-04-02T04:24:46;101896.13;;;4.63;100.00
72157;BME280;60035;52.122;5.406;2023-04-02T04:27:54;101899.50;;;4.62;100.00
72157;BME280;60035;52.122;5.406;2023-04-02T04:30:21;101905.41;;;4.61;100.00
72157;BME280;60035;52.122;5.406;2023-04-02T04:32:56;101909.66;;;4.62;100.00
72157;BME280;60035;52.122;5.406;2023-04-02T04:35:28;101917.22;;;4.59;100.00
72157;BME280;60035;52.122;5.406;2023-04-02T04:38:24;101930.66;;;4.52;100.00
72157;BME280;60035;52.122;5.406;2023-04-02T04:40:59;101933.13;;;4.47;100.00
72157;BME280;60035;52.122;5.406;2023-04-02T04:46:09;101948.19;;;4.38;100.00
72157;BME280;60035;52.122;5.406;2023-04-02T04:48:45;101949.91;;;4.39;100.00
72157;BME280;60035;52.122;5.406;2023-04-02T04:51:41;101963.41;;;4.36;100.00
72157;BME280;60035;52.122;5.406;2023-04-02T04:54:12;101960.84;;;4.34;100.00
72157;BME280;60035;52.122;5.406;2023-04-02T04:56:44;101967.66;;;4.37;100.00
72157;BME280;60035;52.122;5.406;2023-04-02T04:59:18;101975.22;;;4.34;100.00
72157;BME280;60035;52.122;5.406;2023-04-02T05:02:13;101976.84;;;4.29;100.00
72157;BME280;60035;52.122;5.406;2023-04-02T05:04:42;101980.97;;;4.24;100.00
72157;BME280;60035;52.122;5.406;2023-04-02T05:07:20;101978.34;;;4.19;100.00
72157;BME280;60035;52.122;5.406;2023-04-02T05:12:39;102011.03;;;4.02;100.00
72157;BME280;60035;52.122;5.406;2023-04-02T05:20:31;102028.38;;;3.77;100.00
72157;BME280;60035;52.122;5.406;2023-04-02T05:23:11;102032.34;;;3.64;100.00
72157;BME280;60035;52.122;5.406;2023-04-02T05:26:09;102045.75;;;3.57;100.00
72157;BME280;60035;52.122;5.406;2023-04-02T05:28:38;102055.72;;;3.49;100.00
72157;BME280;60035;52.122;5.406;2023-04-02T05:31:09;102056.47;;;3.45;100.00
72157;BME280;60035;52.122;5.406;2023-04-02T05:33:38;102064.09;;;3.45;100.00
72157;BME280;60035;52.122;5.406;2023-04-02T05:36:11;102065.66;;;3.40;100.00
72157;BME280;60035;52.122;5.406;2023-04-02T05:38:44;102077.44;;;3.40;100.00
72157;BME280;60035;52.122;5.406;2023-04-02T05:44:06;102078.06;;;3.28;100.00
72157;BME280;60035;52.122;5.406;2023-04-02T05:46:42;102084.59;;;3.16;100.00
72157;BME280;60035;52.122;5.406;2023-04-02T05:49:23;102097.13;;;3.12;100.00
72157;BME280;60035;52.122;5.406;2023-04-02T05:51:54;102099.47;;;3.04;100.00
72157;BME280;60035;52.122;5.406;2023-04-02T05:54:27;102100.22;;;2.98;100.00
72157;BME280;60035;52.122;5.406;2023-04-02T05:57:03;102119.59;;;2.98;100.00
72157;BME280;60035;52.122;5.406;2023-04-02T05:59:36;102115.31;;;2.95;100.00
72157;BME280;60035;52.122;5.406;2023-04-02T06:02:23;102126.19;;;2.91;100.00
72157;BME280;60035;52.122;5.406;2023-04-02T06:04:57;102137.94;;;2.89;100.00
72157;BME280;60035;52.122;5.406;2023-04-02T06:07:28;102137.00;;;2.86;100.00
72157;BME280;60035;52.122;5.406;2023-04-02T06:10:10;102147.97;;;2.85;100.00
72157;BME280;60035;52.122;5.406;2023-04-02T06:12:47;102156.41;;;2.85;100.00
72157;BME280;60035;52.122;5.406;2023-04-02T06:15:19;102159.72;;;2.82;100.00
72157;BME280;60035;52.122;5.406;2023-04-02T06:18:04;102176.50;;;2.80;100.00
72157;BME280;60035;52.122;5.406;2023-04-02T06:20:31;102181.63;;;2.82;100.00
72157;BME280;60035;52.122;5.406;2023-04-02T06:23:08;102187.59;;;2.86;100.00
72157;BME280;60035;52.122;5.406;2023-04-02T06:26:00;102193.56;;;2.88;100.00
72157;BME280;60035;52.122;5.406;2023-04-02T06:33:51;102198.88;;;2.98;100.00
72157;BME280;60035;52.122;5.406;2023-04-02T06:36:22;102211.66;;;3.03;100.00
72157;BME280;60035;52.122;5.406;2023-04-02T06:38:49;102214.25;;;3.06;100.00
72157;BME280;60035;52.122;5.406;2023-04-02T06:41:22;102217.72;;;3.10;100.00
72157;BME280;60035;52.122;5.406;2023-04-02T06:43:58;102218.63;;;3.13;100.00
72157;BME280;60035;52.122;5.406;2023-04-02T06:46:33;102223.84;;;3.20;100.00
72157;BME280;60035;52.122;5.406;2023-04-02T06:51:39;102228.34;;;3.31;100.00
72157;BME280;60035;52.122;5.406;2023-04-02T06:54:12;102235.03;;;3.29;100.00
72157;BME280;60035;52.122;5.406;2023-04-02T06:56:46;102237.75;;;3.37;100.00
72157;BME280;60035;52.122;5.406;2023-04-02T06:59:14;102242.78;;;3.36;100.00
72157;BME280;60035;52.122;5.406;2023-04-02T07:01:57;102256.22;;;3.33;100.00
72157;BME280;60035;52.122;5.406;2023-04-02T07:04:25;102258.72;;;3.31;100.00
72157;BME280;60035;52.122;5.406;2023-04-02T07:06:53;102273.09;;;3.32;100.00
72157;BME280;60035;52.122;5.406;2023-04-02T07:09:26;102279.03;;;3.34;100.00
72157;BME280;60035;52.122;5.406;2023-04-02T07:11:53;102281.63;;;3.36;100.00
72157;BME280;60035;52.122;5.406;2023-04-02T07:14:19;102294.31;;;3.38;100.00
72157;BME280;60035;52.122;5.406;2023-04-02T07:16:46;102302.75;;;3.38;100.00
72157;BME280;60035;52.122;5.406;2023-04-02T07:19:20;102295.16;;;3.38;100.00
72157;BME280;60035;52.122;5.406;2023-04-02T07:21:48;102307.19;;;3.47;100.00
72157;BME280;60035;52.122;5.406;2023-04-02T07:24:14;102310.59;;;3.49;100.00
72157;BME280;60035;52.122;5.406;2023-04-02T07:26:41;102313.25;;;3.54;100.00
72157;BME280;60035;52.122;5.406;2023-04-02T07:29:13;102320.03;;;3.55;100.00
72157;BME280;60035;52.122;5.406;2023-04-02T07:31:39;102325.94;;;3.55;100.00
72157;BME280;60035;52.122;5.406;2023-04-02T07:34:06;102338.63;;;3.55;100.00
72157;BME280;60035;52.122;5.406;2023-04-02T07:36:33;102337.88;;;3.59;100.00
72157;BME280;60035;52.122;5.406;2023-04-02T07:39:00;102336.13;;;3.58;100.00
72157;BME280;60035;52.122;5.406;2023-04-02T07:41:27;102340.31;;;3.55;100.00
72157;BME280;60035;52.122;5.406;2023-04-02T07:43:53;102350.47;;;3.56;100.00
72157;BME280;60035;52.122;5.406;2023-04-02T07:46:20;102353.91;;;3.60;100.00
72157;BME280;60035;52.122;5.406;2023-04-02T07:48:47;102354.72;;;3.57;100.00
72157;BME280;60035;52.122;5.406;2023-04-02T07:51:21;102354.00;;;3.63;100.00
72157;BME280;60035;52.122;5.406;2023-04-02T07:53:48;102359.94;;;3.65;100.00
72157;BME280;60035;52.122;5.406;2023-04-02T07:56:18;102359.84;;;3.60;100.00
72157;BME280;60035;52.122;5.406;2023-04-02T07:58:45;102362.41;;;3.62;100.00
72157;BME280;60035;52.122;5.406;2023-04-02T08:01:23;102364.94;;;3.62;100.00
72157;BME280;60035;52.122;5.406;2023-04-02T08:03:52;102365.84;;;3.64;100.00
72157;BME280;60035;52.122;5.406;2023-04-02T08:06:21;102371.84;;;3.69;100.00
72157;BME280;60035;52.122;5.406;2023-04-02T08:08:47;102373.78;;;3.79;100.00
72157;BME280;60035;52.122;5.406;2023-04-02T08:11:14;102380.63;;;3.83;100.00
72157;BME280;60035;52.122;5.406;2023-04-02T08:13:41;102382.44;;;3.88;100.00
72157;BME280;60035;52.122;5.406;2023-04-02T08:16:08;102384.91;;;3.84;100.00
72157;BME280;60035;52.122;5.406;2023-04-02T08:18:35;102394.00;;;3.76;100.00
72157;BME280;60035;52.122;5.406;2023-04-02T08:21:05;102396.50;;;3.75;100.00
72157;BME280;60035;52.122;5.406;2023-04-02T08:23:32;102398.16;;;3.74;100.00
72157;BME280;60035;52.122;5.406;2023-04-02T08:25:58;102399.84;;;3.74;100.00
72157;BME280;60035;52.122;5.406;2023-04-02T08:28:25;102416.09;;;3.82;100.00
72157;BME280;60035;52.122;5.406;2023-04-02T08:30:51;102420.28;;;3.80;100.00
72157;BME280;60035;52.122;5.406;2023-04-02T08:33:18;102428.00;;;3.86;100.00
72157;BME280;60035;52.122;5.406;2023-04-02T08:35:46;102433.94;;;3.87;100.00
72157;BME280;60035;52.122;5.406;2023-04-02T08:38:14;102433.81;;;3.82;100.00
72157;BME280;60035;52.122;5.406;2023-04-02T08:40:43;102440.50;;;3.78;100.00
72157;BME280;60035;52.122;5.406;2023-04-02T08:48:36;102446.06;;;3.98;100.00
72157;BME280;60035;52.122;5.406;2023-04-02T08:51:06;102457.75;;;3.93;100.00
72157;BME280;60035;52.122;5.406;2023-04-02T08:53:40;102461.94;;;3.93;100.00
72157;BME280;60035;52.122;5.406;2023-04-02T08:58:49;102471.31;;;3.95;100.00
72157;BME280;60035;52.122;5.406;2023-04-02T09:04:01;102473.91;;;3.97;99.99
72157;BME280;60035;52.122;5.406;2023-04-02T09:06:31;102486.84;;;4.09;100.00
72157;BME280;60035;52.122;5.406;2023-04-02T09:08:58;102490.22;;;4.08;100.00
72157;BME280;60035;52.122;5.406;2023-04-02T09:11:37;102486.84;;;4.09;99.64
72157;BME280;60035;52.122;5.406;2023-04-02T09:14:15;102493.72;;;4.13;99.42
72157;BME280;60035;52.122;5.406;2023-04-02T09:16:47;102497.19;;;4.17;99.39
72157;BME280;60035;52.122;5.406;2023-04-02T09:19:18;102504.84;;;4.20;99.34
72157;BME280;60035;52.122;5.406;2023-04-02T09:21:53;102501.38;;;4.16;98.42
72157;BME280;60035;52.122;5.406;2023-04-02T09:24:22;102513.09;;;4.11;98.20
72157;BME280;60035;52.122;5.406;2023-04-02T09:26:48;102510.66;;;4.14;98.04
72157;BME280;60035;52.122;5.406;2023-04-02T09:29:25;102518.66;;;4.31;98.30
72157;BME280;60035;52.122;5.406;2023-04-02T09:32:22;102529.13;;;4.45;97.53
72157;BME280;60035;52.122;5.406;2023-04-02T09:41:05;102541.38;;;4.63;96.06
72157;BME280;60035;52.122;5.406;2023-04-02T09:43:34;102547.16;;;4.58;95.74
72157;BME280;60035;52.122;5.406;2023-04-02T09:46:16;102550.59;;;4.60;95.55
72157;BME280;60035;52.122;5.406;2023-04-02T09:48:58;102543.75;;;4.57;95.70
72157;BME280;60035;52.122;5.406;2023-04-02T09:51:33;102533.47;;;4.51;95.68
72157;BME280;60035;52.122;5.406;2023-04-02T09:56:38;102545.28;;;4.49;95.53
72157;BME280;60035;52.122;5.406;2023-04-02T10:01:37;102551.00;;;4.78;96.04
72157;BME280;60035;52.122;5.406;2023-04-02T10:04:15;102562.31;;;4.93;95.28
72157;BME280;60035;52.122;5.406;2023-04-02T10:06:52;102554.31;;;5.14;95.16
72157;BME280;60035;52.122;5.406;2023-04-02T10:09:31;102559.97;;;5.43;94.42
72157;BME280;60035;52.122;5.406;2023-04-02T10:12:00;102557.16;;;5.74;92.91
72157;BME280;60035;52.122;5.406;2023-04-02T10:14:37;102558.19;;;5.83;90.73
72157;BME280;60035;52.122;5.406;2023-04-02T10:17:24;102567.19;;;6.13;91.12
72157;BME280;60035;52.122;5.406;2023-04-02T10:19:55;102568.53;;;6.43;89.87
72157;BME280;60035;52.122;5.406;2023-04-02T10:22:27;102564.56;;;6.62;88.83
72157;BME280;60035;52.122;5.406;2023-04-02T10:24:53;102569.91;;;6.79;87.39
72157;BME280;60035;52.122;5.406;2023-04-02T10:30:10;102576.19;;;7.03;85.27
72157;BME280;60035;52.122;5.406;2023-04-02T10:35:42;102569.63;;;7.22;82.12
72157;BME280;60035;52.122;5.406;2023-04-02T10:44:03;102577.56;;;7.45;80.35
72157;BME280;60035;52.122;5.406;2023-04-02T10:49:47;102579.59;;;7.74;78.82
72157;BME280;60035;52.122;5.406;2023-04-02T10:52:23;102577.91;;;7.78;76.78
72157;BME280;60035;52.122;5.406;2023-04-02T10:54:54;102577.22;;;7.94;75.79
72157;BME280;60035;52.122;5.406;2023-04-02T10:57:36;102586.63;;;8.01;74.91
72157;BME280;60035;52.122;5.406;2023-04-02T11:05:28;102583.47;;;8.30;73.18
72157;BME280;60035;52.122;5.406;2023-04-02T11:08:04;102591.25;;;8.44;72.52
72157;BME280;60035;52.122;5.406;2023-04-02T11:10:36;102597.25;;;8.46;71.53
72157;BME280;60035;52.122;5.406;2023-04-02T11:13:26;102594.88;;;8.68;72.97
72157;BME280;60035;52.122;5.406;2023-04-02T11:15:53;102587.28;;;8.77;72.57
72157;BME280;60035;52.122;5.406;2023-04-02T11:18:33;102599.31;;;8.98;71.62
72157;BME280;60035;52.122;5.406;2023-04-02T11:21:07;102602.75;;;9.04;69.34
72157;BME280;60035;52.122;5.406;2023-04-02T11:23:37;102601.03;;;9.01;68.63
72157;BME280;60035;52.122;5.406;2023-04-02T11:29:15;102608.03;;;9.42;69.86
72157;BME280;60035;52.122;5.406;2023-04-02T11:31:44;102608.88;;;9.38;67.48
72157;BME280;60035;52.122;5.406;2023-04-02T11:34:13;102620.84;;;9.53;68.51
72157;BME280;60035;52.122;5.406;2023-04-02T11:39:44;102630.28;;;9.65;66.73
72157;BME280;60035;52.122;5.406;2023-04-02T11:44:44;102620.06;;;9.71;66.00
72157;BME280;60035;52.122;5.406;2023-04-02T11:47:18;102622.63;;;9.71;66.03
72157;BME280;60035;52.122;5.406;2023-04-02T11:52:23;102632.06;;;9.95;66.55
72157;BME280;60035;52.122;5.406;2023-04-02T11:55:03;102634.66;;;10.15;66.64
72157;BME280;60035;52.122;5.406;2023-04-02T12:05:41;102641.53;;;10.49;64.34
72157;BME280;60035;52.122;5.406;2023-04-02T12:10:55;102647.50;;;10.60;61.69
72157;BME280;60035;52.122;5.406;2023-04-02T12:16:15;102641.53;;;10.63;61.98
72157;BME280;60035;52.122;5.406;2023-04-02T12:18:47;102649.16;;;10.92;60.68
72157;BME280;60035;52.122;5.406;2023-04-02T12:21:22;102660.28;;;10.91;60.08
72157;BME280;60035;52.122;5.406;2023-04-02T12:23:52;102656.84;;;11.08;60.38
72157;BME280;60035;52.122;5.406;2023-04-02T12:26:27;102656.78;;;11.22;60.41
72157;BME280;60035;52.122;5.406;2023-04-02T12:29:21;102661.03;;;11.33;60.14
72157;BME280;60035;52.122;5.406;2023-04-02T12:31:56;102658.41;;;11.54;58.83
72157;BME280;60035;52.122;5.406;2023-04-02T12:34:26;102659.19;;;11.68;60.14
72157;BME280;60035;52.122;5.406;2023-04-02T12:37:02;102658.19;;;11.97;59.22
72157;BME280;60035;52.122;5.406;2023-04-02T12:39:32;102663.38;;;11.84;58.80
72157;BME280;60035;52.122;5.406;2023-04-02T12:42:00;102667.63;;;11.90;59.44
72157;BME280;60035;52.122;5.406;2023-04-02T12:44:28;102669.38;;;11.83;58.07
72157;BME280;60035;52.122;5.406;2023-04-02T12:46:56;102666.84;;;11.80;59.64
72157;BME280;60035;52.122;5.406;2023-04-02T12:51:56;102674.41;;;12.10;58.62
72157;BME280;60035;52.122;5.406;2023-04-02T12:54:23;102678.53;;;12.31;58.13
72157;BME280;60035;52.122;5.406;2023-04-02T12:56:50;102677.66;;;12.35;56.55
72157;BME280;60035;52.122;5.406;2023-04-02T12:59:26;102676.00;;;12.28;56.65
72157;BME280;60035;52.122;5.406;2023-04-02T13:01:59;102687.28;;;12.00;55.08
72157;BME280;60035;52.122;5.406;2023-04-02T13:04:26;102694.16;;;11.88;55.74
72157;BME280;60035;52.122;5.406;2023-04-02T13:06:54;102677.09;;;11.82;56.60
72157;BME280;60035;52.122;5.406;2023-04-02T13:09:27;102688.19;;;11.95;56.85
72157;BME280;60035;52.122;5.406;2023-04-02T13:11:55;102683.91;;;11.88;56.98
72157;BME280;60035;52.122;5.406;2023-04-02T13:14:23;102681.34;;;11.84;56.81
72157;BME280;60035;52.122;5.406;2023-04-02T13:16:50;102678.75;;;11.92;57.13
72157;BME280;60035;52.122;5.406;2023-04-02T13:21:44;102688.00;;;12.23;55.30
72157;BME280;60035;52.122;5.406;2023-04-02T13:24:26;102692.22;;;12.30;55.45
72157;BME280;60035;52.122;5.406;2023-04-02T13:26:55;102693.09;;;12.32;54.17
72157;BME280;60035;52.122;5.406;2023-04-02T13:31:55;102688.72;;;12.42;54.27
72157;BME280;60035;52.122;5.406;2023-04-02T13:34:22;102681.91;;;12.42;54.54
72157;BME280;60035;52.122;5.406;2023-04-02T13:36:49;102694.75;;;12.38;52.58
72157;BME280;60035;52.122;5.406;2023-04-02T13:39:15;102703.44;;;12.21;53.42
72157;BME280;60035;52.122;5.406;2023-04-02T13:41:43;102696.53;;;12.28;54.77
72157;BME280;60035;52.122;5.406;2023-04-02T13:44:28;102693.84;;;12.43;53.23
72157;BME280;60035;52.122;5.406;2023-04-02T13:46:55;102694.56;;;12.62;53.27
72157;BME280;60035;52.122;5.406;2023-04-02T13:49:23;102692.69;;;12.85;54.43
72157;BME280;60035;52.122;5.406;2023-04-02T13:51:51;102700.44;;;12.78;51.74
72157;BME280;60035;52.122;5.406;2023-04-02T13:54:32;102706.13;;;13.08;51.92
72157;BME280;60035;52.122;5.406;2023-04-02T13:57:02;102699.06;;;13.29;51.16
72157;BME280;60035;52.122;5.406;2023-04-02T13:59:29;102706.53;;;13.55;50.64
72157;BME280;60035;52.122;5.406;2023-04-02T14:02:00;102709.81;;;13.66;50.49
72157;BME280;60035;52.122;5.406;2023-04-02T14:04:33;102706.00;;;13.95;51.12
72157;BME280;60035;52.122;5.406;2023-04-02T14:12:51;102703.84;;;14.83;51.11
72157;BME280;60035;52.122;5.406;2023-04-02T14:15:30;102706.63;;;15.19;47.72
72157;BME280;60035;52.122;5.406;2023-04-02T14:18:58;102708.25;;;15.25;48.13
72157;BME280;60035;52.122;5.406;2023-04-02T14:34:56;102724.72;;;14.68;48.47
72157;BME280;60035;52.122;5.406;2023-04-02T14:40:37;102726.09;;;14.89;48.73
72157;BME280;60035;52.122;5.406;2023-04-02T14:43:26;102720.78;;;14.98;48.46
72157;BME280;60035;52.122;5.406;2023-04-02T14:45:58;102731.41;;;14.79;46.22
72157;BME280;60035;52.122;5.406;2023-04-02T14:48:47;102737.66;;;14.66;46.82
72157;BME280;60035;52.122;5.406;2023-04-02T14:51:35;102739.41;;;14.64;47.64
72157;BME280;60035;52.122;5.406;2023-04-02T14:54:10;102749.03;;;14.49;46.70
72157;BME280;60035;52.122;5.406;2023-04-02T14:56:44;102745.53;;;14.54;45.93
72157;BME280;60035;52.122;5.406;2023-04-02T14:59:16;102747.16;;;14.61;44.95
72157;BME280;60035;52.122;5.406;2023-04-02T15:01:47;102752.09;;;14.75;46.18
72157;BME280;60035;52.122;5.406;2023-04-02T15:04:34;102751.44;;;14.62;44.74
72157;BME280;60035;52.122;5.406;2023-04-02T15:07:11;102748.94;;;14.57;44.59
72157;BME280;60035;52.122;5.406;2023-04-02T15:09:49;102746.38;;;15.09;45.05
72157;BME280;60035;52.122;5.406;2023-04-02T15:14:52;102751.94;;;15.78;43.03
72157;BME280;60035;52.122;5.406;2023-04-02T15:17:20;102753.84;;;15.70;40.92
72157;BME280;60035;52.122;5.406;2023-04-02T15:19:48;102762.16;;;15.40;40.95
72157;BME280;60035;52.122;5.406;2023-04-02T15:22:30;102772.97;;;14.59;42.54
72157;BME280;60035;52.122;5.406;2023-04-02T15:25:13;102767.81;;;13.98;43.74
72157;BME280;60035;52.122;5.406;2023-04-02T15:30:59;102768.91;;;13.76;45.61
72157;BME280;60035;52.122;5.406;2023-04-02T15:33:59;102764.63;;;13.76;45.67
72157;BME280;60035;52.122;5.406;2023-04-02T15:36:51;102776.91;;;13.53;46.91
72157;BME280;60035;52.122;5.406;2023-04-02T15:39:31;102773.75;;;13.21;46.10
72157;BME280;60035;52.122;5.406;2023-04-02T15:42:21;102775.78;;;12.87;45.62
72157;BME280;60035;52.122;5.406;2023-04-02T15:56:33;102780.22;;;12.63;46.83
72157;BME280;60035;52.122;5.406;2023-04-02T16:10:35;102786.94;;;12.84;49.37
72157;BME280;60035;52.122;5.406;2023-04-02T16:13:25;102791.19;;;12.87;48.16
72157;BME280;60035;52.122;5.406;2023-04-02T16:16:12;102793.81;;;12.82;48.49
72157;BME280;60035;52.122;5.406;2023-04-02T16:19:02;102801.53;;;12.80;48.08
72157;BME280;60035;52.122;5.406;2023-04-02T16:24:36;102812.78;;;12.64;49.38
72157;BME280;60035;52.122;5.406;2023-04-02T16:29:53;102812.44;;;13.12;49.86